createdAt,value
2023-04-25T00:00:20.175Z,69.25
2023-04-25T00:02:47.672Z,69.21
2023-04-25T00:05:16.399Z,69.36
2023-04-25T00:07:43.812Z,69.62
2023-04-25T00:10:12.155Z,69.80
2023-04-25T00:12:40.061Z,70.07
2023-04-25T00:15:07.663Z,69.70
2023-04-25T00:17:36.063Z,70.16
2023-04-25T00:20:06.082Z,70.15
2023-04-25T00:22:35.403Z,70.59
2023-04-25T00:25:02.440Z,70.75
2023-04-25T00:27:30.717Z,71.12
2023-04-25T00:29:57.816Z,71.13
2023-04-25T00:32:24.943Z,71.52
2023-04-25T00:34:51.965Z,71.37
2023-04-25T00:37:19.461Z,71.86
2023-04-25T00:39:46.664Z,72.01
2023-04-25T00:42:13.742Z,72.03
2023-04-25T00:44:40.826Z,71.88
2023-04-25T00:47:08.531Z,72.31
2023-04-25T00:49:35.824Z,72.42
2023-04-25T00:52:02.882Z,71.99
2023-04-25T00:54:31.120Z,72.37
2023-04-25T00:56:58.755Z,72.56
2023-04-25T00:59:25.853Z,73.01
2023-04-25T01:01:53.103Z,72.85
2023-04-25T01:04:20.331Z,73.44
2023-04-25T01:06:47.570Z,73.64
2023-04-25T01:09:14.587Z,73.27
2023-04-25T01:11:41.815Z,73.30
2023-04-25T01:14:08.855Z,73.43
2023-04-25T01:16:35.880Z,73.55
2023-04-25T01:19:10.895Z,73.69
2023-04-25T01:21:37.841Z,74.19
2023-04-25T01:24:05.009Z,73.95
2023-04-25T01:26:32.146Z,74.13
2023-04-25T01:28:59.574Z,74.39
2023-04-25T01:31:26.835Z,74.58
2023-04-25T01:33:53.898Z,75.19
2023-04-25T01:36:21.691Z,75.18
2023-04-25T01:38:48.798Z,75.69
2023-04-25T01:41:16.233Z,75.18
2023-04-25T01:43:43.237Z,75.87
2023-04-25T01:46:10.389Z,75.85
2023-04-25T01:48:37.467Z,75.42
2023-04-25T01:51:04.741Z,76.03
2023-04-25T01:53:31.722Z,75.94
2023-04-25T01:55:59.602Z,75.81
2023-04-25T01:58:30.916Z,75.92
2023-04-25T02:01:06.535Z,75.70
2023-04-25T02:03:41.512Z,75.69
2023-04-25T02:06:15.175Z,76.04
2023-04-25T02:08:44.973Z,75.89
2023-04-25T02:11:13.598Z,76.21
2023-04-25T02:13:49.690Z,76.26
2023-04-25T02:16:33.207Z,76.43
2023-04-25T02:19:01.777Z,76.61
2023-04-25T02:21:31.543Z,76.86
2023-04-25T02:23:58.684Z,77.08
2023-04-25T02:26:29.123Z,77.68
2023-04-25T02:28:57.706Z,77.53
2023-04-25T02:31:24.715Z,77.43
2023-04-25T02:33:52.885Z,78.21
2023-04-25T02:36:20.093Z,77.91
2023-04-25T02:38:49.393Z,78.09
2023-04-25T02:41:16.410Z,78.06
2023-04-25T02:43:43.387Z,78.62
2023-04-25T02:46:11.097Z,78.66
2023-04-25T02:48:38.253Z,78.26
2023-04-25T02:51:05.326Z,78.33
2023-04-25T02:53:32.758Z,78.49
2023-04-25T02:56:00.268Z,78.69
2023-04-25T02:58:27.405Z,79.35
2023-04-25T03:00:55.803Z,79.34
2023-04-25T03:03:23.144Z,79.17
2023-04-25T03:05:51.821Z,79.83
2023-04-25T03:08:23.984Z,79.81
2023-04-25T03:10:52.459Z,79.49
2023-04-25T03:13:19.784Z,79.27
2023-04-25T03:15:47.126Z,79.34
2023-04-25T03:18:14.213Z,78.62
2023-04-25T03:20:42.943Z,78.59
2023-04-25T03:23:10.034Z,78.40
2023-04-25T03:25:38.051Z,78.43
2023-04-25T03:28:05.311Z,78.42
2023-04-25T03:30:33.214Z,78.21
2023-04-25T03:33:00.638Z,78.24
2023-04-25T03:35:27.780Z,78.05
2023-04-25T03:37:55.402Z,77.80
2023-04-25T03:40:27.952Z,77.90
2023-04-25T03:43:13.436Z,77.84
2023-04-25T03:45:47.124Z,77.67
2023-04-25T03:48:14.857Z,77.39
2023-04-25T03:50:41.854Z,76.99
2023-04-25T03:53:09.263Z,77.09
2023-04-25T03:55:56.319Z,76.34
2023-04-25T03:58:25.447Z,76.07
2023-04-25T04:00:52.650Z,75.40
2023-04-25T04:03:19.956Z,75.24
2023-04-25T04:05:47.609Z,74.36
2023-04-25T04:08:14.684Z,74.10
2023-04-25T04:10:42.347Z,72.93
2023-04-25T04:13:09.920Z,72.43
2023-04-25T04:15:37.170Z,71.73
2023-04-25T04:18:04.436Z,70.56
2023-04-25T04:20:31.949Z,69.97
2023-04-25T04:22:59.489Z,69.14
2023-04-25T04:25:27.291Z,68.50
2023-04-25T04:28:14.305Z,67.75
2023-04-25T04:30:52.244Z,66.94
2023-04-25T04:33:22.504Z,66.19
2023-04-25T04:35:56.772Z,65.89
2023-04-25T04:38:23.966Z,65.29
2023-04-25T04:40:53.512Z,64.79
2023-04-25T04:43:30.533Z,64.04
2023-04-25T04:46:25.709Z,63.66
2023-04-25T04:49:02.454Z,62.82
2023-04-25T04:51:50.899Z,62.21
2023-04-25T04:54:36.705Z,61.51
2023-04-25T04:57:36.171Z,60.02
2023-04-25T05:00:19.404Z,59.46
2023-04-25T05:02:46.523Z,58.76
2023-04-25T05:05:33.937Z,58.10
2023-04-25T05:08:32.055Z,57.05
2023-04-25T05:11:24.874Z,56.08
2023-04-25T05:14:14.989Z,55.51
2023-04-25T05:16:42.110Z,54.70
2023-04-25T05:19:39.056Z,54.14
2023-04-25T05:22:32.480Z,53.34
2023-04-25T05:25:28.819Z,52.11
2023-04-25T05:28:16.103Z,51.45
2023-04-25T05:30:50.670Z,51.47
2023-04-25T05:33:27.289Z,50.74
2023-04-25T05:35:54.538Z,50.38
2023-04-25T05:38:22.057Z,50.24
2023-04-25T05:41:08.439Z,49.08
2023-04-25T05:43:56.245Z,49.37
2023-04-25T05:46:34.166Z,48.26
2023-04-25T05:49:21.748Z,47.52
2023-04-25T05:52:10.768Z,47.16
2023-04-25T05:54:40.829Z,46.60
2023-04-25T05:57:07.986Z,46.23
2023-04-25T05:59:35.158Z,46.03
2023-04-25T06:02:02.455Z,45.77
2023-04-25T06:04:32.672Z,45.71
2023-04-25T06:07:01.421Z,45.45
2023-04-25T06:09:28.517Z,45.62
2023-04-25T06:11:55.664Z,45.69
2023-04-25T06:14:22.863Z,44.42
2023-04-25T06:16:51.608Z,43.92
2023-04-25T06:19:18.571Z,43.83
2023-04-25T06:21:45.510Z,43.80
2023-04-25T06:24:12.788Z,43.41
2023-04-25T06:26:39.795Z,43.80
2023-04-25T06:29:07.277Z,43.64
2023-04-25T06:31:34.980Z,43.62
2023-04-25T06:34:02.156Z,43.50
2023-04-25T06:36:31.586Z,43.75
2023-04-25T06:39:05.000Z,43.92
2023-04-25T06:41:33.957Z,43.86
2023-04-25T06:44:03.089Z,43.89
2023-04-25T06:46:34.170Z,43.50
2023-04-25T06:49:01.280Z,43.19
2023-04-25T06:51:30.816Z,42.44
2023-04-25T06:53:58.356Z,42.60
2023-04-25T06:56:34.735Z,42.16
2023-04-25T06:59:10.271Z,42.32
2023-04-25T07:01:39.270Z,42.62
2023-04-25T07:04:11.959Z,42.48
2023-04-25T07:06:46.060Z,42.80
2023-04-25T07:09:13.856Z,42.73
2023-04-25T07:11:43.448Z,42.72
2023-04-25T07:14:10.545Z,42.75
2023-04-25T07:16:37.697Z,42.59
2023-04-25T07:19:04.906Z,42.64
2023-04-25T07:21:32.397Z,42.51
2023-04-25T07:24:01.193Z,42.17
2023-04-25T07:26:32.998Z,42.34
2023-04-25T07:29:26.389Z,42.08
2023-04-25T07:31:54.075Z,42.14
2023-04-25T07:34:22.192Z,41.89
2023-04-25T07:36:49.536Z,41.49
2023-04-25T07:39:16.547Z,40.45
2023-04-25T07:41:44.245Z,40.64
2023-04-25T07:44:18.506Z,40.61
2023-04-25T07:46:45.735Z,40.05
2023-04-25T07:49:12.791Z,39.64
2023-04-25T07:51:42.106Z,39.65
2023-04-25T07:54:16.893Z,39.77
2023-04-25T07:56:52.922Z,39.00
2023-04-25T07:59:22.711Z,38.42
2023-04-25T08:01:49.976Z,37.96
2023-04-25T08:04:18.953Z,38.21
2023-04-25T08:06:54.857Z,38.23
2023-04-25T08:09:28.262Z,37.65
2023-04-25T08:11:56.572Z,37.11
2023-04-25T08:14:30.137Z,36.69
2023-04-25T08:16:57.230Z,37.02
2023-04-25T08:19:25.220Z,36.95
2023-04-25T08:21:52.990Z,37.04
2023-04-25T08:24:27.409Z,37.76
2023-04-25T08:26:55.121Z,38.26
2023-04-25T08:29:26.528Z,39.10
2023-04-25T08:31:56.242Z,39.80
2023-04-25T08:34:23.593Z,39.49
2023-04-25T08:36:52.018Z,38.83
2023-04-25T08:39:39.399Z,38.45
2023-04-25T08:42:25.825Z,38.56
2023-04-25T08:44:54.348Z,38.22
2023-04-25T08:47:23.596Z,38.28
2023-04-25T08:49:55.995Z,38.32
2023-04-25T08:52:24.128Z,38.75
2023-04-25T08:54:52.369Z,38.45
2023-04-25T08:57:20.227Z,38.26
2023-04-25T08:59:49.644Z,38.60
2023-04-25T09:02:19.035Z,38.81
2023-04-25T09:04:49.210Z,39.18
2023-04-25T09:07:19.758Z,38.81
2023-04-25T09:09:47.115Z,39.16
2023-04-25T09:12:19.635Z,38.75
2023-04-25T09:15:06.379Z,38.94
2023-04-25T09:17:58.778Z,38.37
2023-04-25T09:20:31.832Z,38.17
2023-04-25T09:23:04.110Z,37.34
2023-04-25T09:25:37.810Z,37.71
2023-04-25T09:28:05.778Z,37.86
2023-04-25T09:30:34.174Z,37.35
2023-04-25T09:33:11.858Z,37.25
2023-04-25T09:35:43.435Z,36.74
2023-04-25T09:38:19.204Z,36.76
2023-04-25T09:40:50.855Z,36.55
2023-04-25T09:43:26.399Z,36.27
2023-04-25T09:45:58.868Z,36.43
2023-04-25T09:48:27.314Z,36.11
2023-04-25T09:51:06.828Z,35.65
2023-04-25T09:53:41.114Z,35.43
2023-04-25T09:56:14.891Z,36.01
2023-04-25T09:58:42.277Z,36.10
2023-04-25T10:01:11.083Z,36.03
2023-04-25T10:03:49.642Z,36.45
2023-04-25T10:06:44.108Z,35.98
2023-04-25T10:09:11.570Z,36.72
2023-04-25T10:11:39.095Z,36.54
2023-04-25T10:14:06.501Z,36.63
2023-04-25T10:16:33.564Z,35.94
2023-04-25T10:19:00.801Z,36.34
2023-04-25T10:21:28.582Z,36.31
2023-04-25T10:23:55.618Z,35.65
2023-04-25T10:26:23.102Z,35.78
2023-04-25T10:29:00.838Z,36.23
2023-04-25T10:31:28.380Z,36.42
2023-04-25T10:33:55.733Z,36.63
2023-04-25T10:36:23.750Z,36.14
2023-04-25T10:38:51.900Z,36.07
2023-04-25T10:41:22.469Z,35.37
2023-04-25T10:43:50.719Z,35.32
2023-04-25T10:46:24.916Z,35.36
2023-04-25T10:48:53.524Z,35.55
2023-04-25T10:51:25.503Z,35.45
2023-04-25T10:54:02.362Z,35.52
2023-04-25T10:56:30.418Z,35.46
2023-04-25T10:59:11.500Z,35.23
2023-04-25T11:01:54.148Z,35.15
2023-04-25T11:04:26.998Z,35.29
2023-04-25T11:07:06.518Z,35.30
2023-04-25T11:09:41.203Z,35.31
2023-04-25T11:12:09.205Z,35.06
2023-04-25T11:14:36.875Z,35.20
2023-04-25T11:17:04.380Z,35.08
2023-04-25T11:19:31.746Z,36.23
2023-04-25T11:21:59.418Z,36.32
2023-04-25T11:24:33.338Z,36.30
2023-04-25T11:27:00.467Z,36.44
2023-04-25T11:29:31.519Z,36.68
2023-04-25T11:31:59.371Z,36.16
2023-04-25T11:34:27.073Z,36.32
2023-04-25T11:36:54.549Z,36.12
2023-04-25T11:39:21.559Z,36.00
2023-04-25T11:41:48.809Z,35.75
2023-04-25T11:44:19.179Z,36.41
2023-04-25T11:46:46.769Z,37.17
2023-04-25T11:49:14.569Z,37.01
2023-04-25T11:51:42.357Z,37.09
2023-04-25T11:54:09.318Z,36.99
2023-04-25T11:56:36.358Z,37.01
2023-04-25T11:59:07.682Z,36.99
2023-04-25T12:01:39.122Z,36.51
2023-04-25T12:04:16.131Z,36.40
2023-04-25T12:06:44.599Z,36.96
2023-04-25T12:09:12.334Z,36.90
2023-04-25T12:11:49.708Z,36.75
2023-04-25T12:14:28.346Z,36.13
2023-04-25T12:16:58.296Z,36.79
2023-04-25T12:19:25.613Z,37.55
2023-04-25T12:24:25.841Z,37.26
2023-04-25T12:27:03.382Z,36.78
2023-04-25T12:29:41.911Z,37.05
2023-04-25T12:32:15.638Z,37.22
2023-04-25T12:34:42.690Z,37.01
2023-04-25T12:37:09.683Z,36.95
2023-04-25T12:39:36.757Z,37.03
2023-04-25T12:42:06.176Z,37.25
2023-04-25T12:44:36.088Z,37.28
2023-04-25T12:47:04.336Z,37.26
2023-04-25T12:49:31.588Z,37.46
2023-04-25T12:51:58.973Z,37.18
2023-04-25T12:54:26.880Z,37.13
2023-04-25T12:56:54.143Z,37.50
2023-04-25T12:59:22.254Z,37.50
2023-04-25T13:01:49.437Z,37.90
2023-04-25T13:04:17.189Z,37.92
2023-04-25T13:06:44.739Z,38.34
2023-04-25T13:09:13.609Z,38.51
2023-04-25T13:11:42.445Z,38.43
2023-04-25T13:14:09.495Z,37.80
2023-04-25T13:16:36.695Z,37.80
2023-04-25T13:19:03.817Z,37.25
2023-04-25T13:21:34.207Z,37.46
2023-04-25T13:24:01.288Z,37.53
2023-04-25T13:26:28.573Z,37.67
2023-04-25T13:28:55.641Z,38.17
2023-04-25T13:31:22.679Z,38.71
2023-04-25T13:33:50.231Z,38.99
2023-04-25T13:36:19.432Z,39.35
2023-04-25T13:38:48.356Z,39.28
2023-04-25T13:41:19.848Z,39.64
2023-04-25T13:43:48.839Z,39.92
2023-04-25T13:46:35.313Z,39.68
2023-04-25T13:49:12.739Z,39.55
2023-04-25T13:51:40.466Z,39.49
2023-04-25T13:54:07.604Z,39.87
2023-04-25T13:56:34.727Z,39.98
2023-04-25T13:59:01.807Z,39.86
2023-04-25T14:01:29.361Z,39.68
2023-04-25T14:03:56.423Z,40.32
2023-04-25T14:06:25.141Z,41.78
2023-04-25T14:08:52.117Z,43.19
2023-04-25T14:11:19.488Z,44.65
2023-04-25T14:13:47.121Z,46.91
2023-04-25T14:16:14.232Z,49.59
2023-04-25T14:18:41.303Z,54.07
2023-04-25T14:21:08.350Z,57.26
2023-04-25T14:23:35.385Z,58.93
2023-04-25T14:26:02.781Z,61.06
2023-04-25T14:28:29.867Z,62.03
2023-04-25T14:30:57.171Z,62.63
2023-04-25T14:33:24.734Z,62.77
2023-04-25T14:35:51.796Z,63.34
2023-04-25T14:38:19.597Z,64.26
2023-04-25T14:40:46.670Z,65.02
2023-04-25T14:43:13.738Z,65.28
2023-04-25T14:45:40.872Z,66.33
2023-04-25T14:48:07.915Z,66.62
2023-04-25T14:50:35.143Z,66.44
2023-04-25T14:53:02.139Z,67.01
2023-04-25T14:55:29.325Z,67.30
2023-04-25T14:57:57.509Z,66.90
2023-04-25T15:00:26.304Z,67.17
2023-04-25T15:02:53.635Z,66.76
2023-04-25T15:05:21.075Z,65.62
2023-04-25T15:07:49.006Z,65.10
2023-04-25T15:10:17.208Z,64.11
2023-04-25T15:12:46.323Z,63.86
2023-04-25T15:15:22.703Z,63.16
2023-04-25T15:17:54.315Z,63.11
2023-04-25T15:20:22.444Z,63.18
2023-04-25T15:22:49.880Z,63.19
2023-04-25T15:25:19.022Z,63.17
2023-04-25T15:27:49.520Z,62.97
2023-04-25T15:30:17.468Z,63.70
2023-04-25T15:32:45.207Z,63.90
2023-04-25T15:35:12.281Z,64.48
2023-04-25T15:37:39.395Z,64.56
2023-04-25T15:40:10.753Z,64.21
2023-04-25T15:42:44.752Z,63.91
2023-04-25T15:45:12.292Z,63.68
2023-04-25T15:47:39.316Z,63.83
2023-04-25T15:50:08.333Z,64.33
2023-04-25T15:52:36.049Z,64.60
2023-04-25T15:55:04.671Z,64.92
2023-04-25T15:57:34.502Z,65.08
2023-04-25T16:00:03.076Z,65.28
2023-04-25T16:02:39.913Z,65.55
2023-04-25T16:05:07.638Z,65.51
2023-04-25T16:07:35.690Z,65.99
2023-04-25T16:10:02.737Z,66.20
2023-04-25T16:12:31.928Z,66.09
2023-04-25T16:14:58.939Z,66.73
2023-04-25T16:17:26.108Z,67.25
2023-04-25T16:19:53.126Z,67.78
2023-04-25T16:22:20.031Z,67.98
2023-04-25T16:24:47.323Z,68.50
2023-04-25T16:27:14.950Z,68.75
2023-04-25T16:29:42.397Z,69.53
2023-04-25T16:32:09.310Z,70.39
2023-04-25T16:34:36.490Z,70.86
2023-04-25T16:37:03.663Z,71.61
2023-04-25T16:39:30.763Z,72.31
2023-04-25T16:41:57.785Z,72.98
2023-04-25T16:44:24.764Z,73.82
2023-04-25T16:46:51.680Z,74.54
2023-04-25T16:49:18.761Z,75.35
2023-04-25T16:51:46.582Z,75.79
2023-04-25T16:54:13.580Z,76.77
2023-04-25T16:56:41.695Z,77.59
2023-04-25T16:59:08.654Z,79.31
2023-04-25T17:01:36.336Z,80.55
2023-04-25T17:04:03.536Z,81.69
2023-04-25T17:06:30.697Z,82.82
2023-04-25T17:08:57.656Z,84.14
2023-04-25T17:11:24.700Z,84.93
2023-04-25T17:13:51.744Z,86.00
2023-04-25T17:16:22.980Z,86.93
2023-04-25T17:18:53.522Z,87.72
2023-04-25T17:21:20.679Z,88.54
2023-04-25T17:23:47.675Z,89.42
2023-04-25T17:26:14.815Z,90.62
2023-04-25T17:28:42.313Z,91.14
2023-04-25T17:31:09.863Z,91.88
2023-04-25T17:33:37.088Z,92.41
2023-04-25T17:36:04.332Z,93.32
2023-04-25T17:38:32.188Z,94.11
2023-04-25T17:40:59.168Z,94.45
2023-04-25T17:43:27.689Z,95.05
2023-04-25T17:45:54.965Z,95.42
2023-04-25T17:48:22.903Z,96.23
2023-04-25T17:50:50.010Z,96.60
2023-04-25T17:53:17.144Z,97.10
2023-04-25T17:55:44.481Z,97.56
2023-04-25T17:58:11.743Z,97.80
2023-04-25T18:00:38.920Z,98.12
2023-04-25T18:03:06.135Z,98.15
2023-04-25T18:05:33.660Z,98.83
2023-04-25T18:08:00.885Z,99.37
2023-04-25T18:10:28.121Z,99.73
2023-04-25T18:12:55.092Z,100.00
2023-04-25T18:15:23.332Z,100.00
2023-04-25T18:17:50.701Z,100.00
2023-04-25T18:20:17.999Z,100.00
2023-04-25T18:22:45.369Z,100.00
2023-04-25T18:25:13.772Z,100.00
2023-04-25T18:27:41.084Z,100.00
2023-04-25T18:30:09.500Z,100.00
2023-04-25T18:32:36.946Z,100.00
2023-04-25T18:35:04.768Z,100.00
2023-04-25T18:37:33.115Z,100.00
2023-04-25T18:40:00.805Z,100.00
2023-04-25T18:42:27.840Z,100.00
2023-04-25T18:44:54.901Z,100.00
2023-04-25T18:47:21.806Z,100.00
2023-04-25T18:49:50.845Z,100.00
2023-04-25T18:52:19.097Z,100.00
2023-04-25T18:54:46.157Z,100.00
2023-04-25T18:57:15.171Z,100.00
2023-04-25T18:59:44.441Z,100.00
2023-04-25T19:02:12.614Z,100.00
2023-04-25T19:04:39.819Z,100.00
2023-04-25T19:07:06.963Z,100.00
2023-04-25T19:09:33.931Z,100.00
2023-04-25T19:12:01.908Z,100.00
2023-04-25T19:14:32.015Z,100.00
2023-04-25T19:17:01.881Z,100.00
2023-04-25T19:19:29.081Z,100.00
2023-04-25T19:21:56.063Z,100.00
2023-04-25T19:24:23.209Z,100.00
2023-04-25T19:26:50.213Z,100.00
2023-04-25T19:29:17.347Z,100.00
2023-04-25T19:31:44.868Z,100.00
2023-04-25T19:34:12.974Z,100.00
2023-04-25T19:36:41.469Z,100.00
2023-04-25T19:39:08.708Z,100.00
2023-04-25T19:41:36.417Z,100.00
2023-04-25T19:44:04.892Z,100.00
2023-04-25T19:46:32.209Z,100.00
2023-04-25T19:48:59.625Z,100.00
2023-04-25T19:51:30.827Z,100.00
2023-04-25T19:53:57.797Z,100.00
2023-04-25T19:56:24.833Z,100.00
2023-04-25T19:58:52.190Z,100.00
2023-04-25T20:01:22.193Z,100.00
2023-04-25T20:03:51.812Z,100.00
2023-04-25T20:06:19.157Z,100.00
2023-04-25T20:08:47.399Z,100.00
2023-04-25T20:11:15.181Z,100.00
2023-04-25T20:13:42.471Z,100.00
2023-04-25T20:16:09.560Z,100.00
2023-04-25T20:18:36.541Z,100.00
2023-04-25T20:21:03.578Z,100.00
2023-04-25T20:23:30.529Z,100.00
2023-04-25T20:25:57.646Z,100.00
2023-04-25T20:28:24.599Z,100.00
2023-04-25T20:30:51.661Z,100.00
2023-04-25T20:33:18.909Z,100.00
2023-04-25T20:35:46.583Z,100.00
2023-04-25T20:38:13.833Z,100.00
2023-04-25T20:40:40.887Z,100.00
2023-04-25T20:43:11.145Z,100.00
2023-04-25T20:45:38.676Z,100.00
2023-04-25T20:48:05.959Z,100.00
2023-04-25T20:50:33.451Z,100.00
2023-04-25T20:53:00.443Z,100.00
2023-04-25T20:55:27.835Z,100.00
2023-04-25T20:57:54.908Z,100.00
2023-04-25T21:00:27.472Z,100.00
2023-04-25T21:02:55.093Z,100.00
2023-04-25T21:05:22.522Z,100.00
2023-04-25T21:07:50.411Z,100.00
2023-04-25T21:10:17.702Z,100.00
2023-04-25T21:12:48.186Z,100.00
2023-04-25T21:15:20.159Z,100.00
2023-04-25T21:17:47.939Z,100.00
2023-04-25T21:20:17.839Z,100.00
2023-04-25T21:22:54.171Z,100.00
2023-04-25T21:25:29.120Z,100.00
2023-04-25T21:27:56.320Z,100.00
2023-04-25T21:30:23.969Z,100.00
2023-04-25T21:32:51.464Z,100.00
2023-04-25T21:35:19.525Z,100.00
2023-04-25T21:37:46.662Z,100.00
2023-04-25T21:40:14.266Z,100.00
2023-04-25T21:42:42.386Z,100.00
2023-04-25T21:45:10.204Z,100.00
2023-04-25T21:47:37.292Z,100.00
2023-04-25T21:50:05.188Z,100.00
2023-04-25T21:52:32.391Z,100.00
2023-04-25T21:54:59.776Z,100.00
2023-04-25T21:57:26.767Z,100.00
2023-04-25T21:59:53.750Z,100.00
2023-04-25T22:02:20.890Z,100.00
2023-04-25T22:04:48.139Z,100.00
2023-04-25T22:07:15.618Z,100.00
2023-04-25T22:09:53.818Z,100.00
2023-04-25T22:12:22.762Z,100.00
2023-04-25T22:14:50.288Z,100.00
2023-04-25T22:17:17.979Z,100.00
2023-04-25T22:19:45.307Z,100.00
2023-04-25T22:22:12.739Z,100.00
2023-04-25T22:24:40.217Z,100.00
2023-04-25T22:27:07.301Z,100.00
2023-04-25T22:29:34.294Z,100.00
2023-04-25T22:32:01.882Z,100.00
2023-04-25T22:34:28.890Z,100.00
2023-04-25T22:36:55.897Z,100.00
2023-04-25T22:39:23.528Z,100.00
2023-04-25T22:41:50.724Z,100.00
2023-04-25T22:44:17.988Z,100.00
2023-04-25T22:46:45.055Z,100.00
2023-04-25T22:49:12.132Z,100.00
2023-04-25T22:51:39.152Z,100.00
2023-04-25T22:54:06.212Z,100.00
2023-04-25T22:56:33.231Z,100.00
2023-04-25T22:59:00.304Z,100.00
2023-04-25T23:01:29.099Z,100.00
2023-04-25T23:03:56.671Z,100.00
2023-04-25T23:06:24.814Z,100.00
2023-04-25T23:08:52.080Z,100.00
2023-04-25T23:11:20.516Z,100.00
2023-04-25T23:13:47.598Z,100.00
2023-04-25T23:16:14.609Z,100.00
2023-04-25T23:18:41.677Z,100.00
2023-04-25T23:21:09.346Z,100.00
2023-04-25T23:23:36.596Z,100.00
2023-04-25T23:26:12.524Z,100.00
2023-04-25T23:28:41.659Z,100.00
2023-04-25T23:31:10.098Z,100.00
2023-04-25T23:33:37.586Z,100.00
2023-04-25T23:36:04.864Z,100.00
2023-04-25T23:38:32.234Z,100.00
2023-04-25T23:40:59.178Z,100.00
2023-04-25T23:43:26.362Z,100.00
2023-04-25T23:45:54.283Z,100.00
2023-04-25T23:48:21.517Z,100.00
2023-04-25T23:50:48.622Z,100.00
2023-04-25T23:53:15.711Z,100.00
2023-04-25T23:55:42.627Z,100.00
2023-04-25T23:58:09.778Z,100.00
